Time;durP1;ratioP1;P1;durP2;ratioP2;P2;SDS_P1;SDS_P2;PMS_P1;PMS_P2;Temp;Humidity;BMP_temperature;BMP_pressure;BME280_temperature;BME280_humidity;BME280_pressure;Samples;Min_cycle;Max_cycle;Signal;HPM_P1;HPM_P2
2023/09/23 00:00:59;;;;;;;;;8.50;7.00;;;;;24.91;100.00;97946.38;6222766;28;96540;-62
2023/09/23 00:04:03;;;;;;;;;9.00;8.00;;;;;24.98;100.00;97941.13;6239770;28;96942;-62
2023/09/23 00:07:07;;;;;;;;;8.00;7.00;;;;;24.99;100.00;97951.00;6254677;27;96786;-62
2023/09/23 00:10:11;;;;;;;;;9.00;9.00;;;;;24.92;100.00;97956.25;6237879;28;98883;-62
2023/09/23 00:13:16;;;;;;;;;8.40;7.00;;;;;24.83;100.00;97954.69;6239936;28;96380;-62
2023/09/23 00:16:21;;;;;;;;;10.00;9.60;;;;;24.83;100.00;97963.75;6223186;28;96375;-62
2023/09/23 00:19:24;;;;;;;;;8.80;7.80;;;;;24.78;100.00;97963.16;6214121;28;97279;-62
2023/09/23 00:22:27;;;;;;;;;10.00;8.80;;;;;24.74;100.00;97956.72;6231458;28;96355;-62
2023/09/23 00:25:31;;;;;;;;;7.75;6.00;;;;;24.47;100.00;97967.13;6240290;28;96664;-62
2023/09/23 00:28:36;;;;;;;;;8.00;8.00;;;;;24.48;100.00;97952.19;6239604;27;96294;-62
2023/09/23 00:31:41;;;;;;;;;8.00;8.00;;;;;24.27;100.00;97942.31;6238452;28;96296;-62
2023/09/23 00:34:44;;;;;;;;;7.00;6.00;;;;;24.31;100.00;97946.00;6239863;27;96382;-62
2023/09/23 00:37:48;;;;;;;;;6.60;6.00;;;;;24.30;100.00;97934.16;6238071;28;98638;-62
2023/09/23 00:40:52;;;;;;;;;7.20;6.20;;;;;24.26;100.00;97940.69;6240239;28;96413;-62
2023/09/23 00:43:57;;;;;;;;;5.80;5.20;;;;;24.11;100.00;97928.28;6239586;27;96879;-62
2023/09/23 00:47:01;;;;;;;;;4.00;4.00;;;;;24.25;100.00;97928.84;6233952;28;96398;-62
2023/09/23 00:50:17;;;;;;;;;7.00;6.00;;;;;24.33;100.00;97929.97;6227551;28;96798;-62
2023/09/23 00:53:21;;;;;;;;;6.00;6.00;;;;;24.39;100.00;97932.16;6237440;27;96352;-62
2023/09/23 00:56:30;;;;;;;;;6.00;6.00;;;;;24.46;100.00;97932.44;6239039;28;96335;-62
2023/09/23 00:59:36;;;;;;;;;7.20;6.20;;;;;24.51;100.00;97935.00;6221468;28;98666;-62
2023/09/23 01:02:39;;;;;;;;;8.60;7.00;;;;;24.53;100.00;97918.16;6237731;28;96881;-62
2023/09/23 01:05:44;;;;;;;;;6.00;6.00;;;;;24.55;100.00;97918.59;6239062;27;96398;-62
2023/09/23 01:08:47;;;;;;;;;6.00;5.00;;;;;24.52;100.00;97913.78;6234641;28;96996;-62
2023/09/23 01:11:51;;;;;;;;;6.20;6.20;;;;;24.39;100.00;97915.63;6223425;28;96664;-62
2023/09/23 01:15:18;;;;;;;;;7.20;7.00;;;;;24.25;100.00;97908.78;6236937;28;99041;-62
2023/09/23 01:18:28;;;;;;;;;6.00;6.00;;;;;24.04;100.00;97906.75;6237190;28;96801;-62
2023/09/23 01:21:33;;;;;;;;;7.00;7.00;;;;;24.01;100.00;97909.38;6214540;28;96339;-62
2023/09/23 01:24:37;;;;;;;;;8.00;7.80;;;;;23.96;100.00;97915.06;6229379;28;96326;-62
2023/09/23 01:27:41;;;;;;;;;6.60;6.60;;;;;23.93;100.00;97919.31;6227619;27;96808;-62
2023/09/23 01:30:44;;;;;;;;;8.00;7.00;;;;;23.90;100.00;97928.22;6232727;28;96362;-62
2023/09/23 01:33:48;;;;;;;;;4.00;4.00;;;;;23.82;100.00;97918.06;6238053;28;96430;-62
2023/09/23 01:36:53;;;;;;;;;4.60;4.60;;;;;23.85;100.00;97913.84;6234897;27;96513;-62
2023/09/23 01:39:58;;;;;;;;;6.00;4.00;;;;;23.87;100.00;97906.06;6195631;28;96767;-62
2023/09/23 01:43:02;;;;;;;;;6.00;5.40;;;;;23.85;100.00;97914.63;6233118;28;96414;-62
2023/09/23 01:46:06;;;;;;;;;6.00;4.00;;;;;23.84;100.00;97910.28;6236423;28;96482;-62
2023/09/23 01:49:10;;;;;;;;;6.00;6.00;;;;;23.83;100.00;97916.94;6202988;28;96744;-62
2023/09/23 01:52:15;;;;;;;;;5.00;4.60;;;;;23.86;100.00;97919.00;6238154;28;96767;-62
2023/09/23 01:55:20;;;;;;;;;4.00;4.00;;;;;23.89;100.00;97920.31;6237732;28;96366;-62
2023/09/23 01:58:23;;;;;;;;;5.00;5.00;;;;;23.89;100.00;97929.38;6237445;28;96377;-62
2023/09/23 02:01:27;;;;;;;;;6.60;6.00;;;;;23.97;100.00;97938.72;6269250;27;96455;-62
2023/09/23 02:04:31;;;;;;;;;3.20;3.20;;;;;23.97;100.00;97939.53;6236680;28;96457;-62
2023/09/23 02:07:34;;;;;;;;;5.20;5.00;;;;;23.97;100.00;97949.72;6237207;28;96361;-62
2023/09/23 02:10:39;;;;;;;;;5.00;4.00;;;;;24.01;100.00;97947.94;6236456;28;96600;-62
2023/09/23 02:13:42;;;;;;;;;4.20;3.20;;;;;23.99;100.00;97942.78;6253103;27;96537;-62
2023/09/23 02:16:47;;;;;;;;;5.00;5.00;;;;;24.00;100.00;97938.03;6235786;28;98343;-62
2023/09/23 02:19:51;;;;;;;;;4.20;3.20;;;;;24.03;100.00;97934.66;6254268;27;96970;-62
2023/09/23 02:22:55;;;;;;;;;5.00;5.00;;;;;24.08;100.00;97938.03;6222655;27;97545;-62
2023/09/23 02:26:01;;;;;;;;;6.20;5.20;;;;;24.12;100.00;97961.00;6219395;27;96374;-62
2023/09/23 02:29:04;;;;;;;;;5.00;5.00;;;;;24.09;100.00;97978.16;6266463;27;96321;-62
2023/09/23 02:32:08;;;;;;;;;5.00;5.00;;;;;23.94;100.00;97970.47;6236160;28;97528;-62
2023/09/23 02:35:13;;;;;;;;;5.00;5.00;;;;;23.82;100.00;97983.31;6254109;27;96322;-62
2023/09/23 02:38:18;;;;;;;;;6.60;5.40;;;;;23.63;100.00;97998.28;6237027;28;96990;-62
2023/09/23 02:41:23;;;;;;;;;6.00;5.00;;;;;23.53;100.00;97995.06;6238217;27;96394;-62
2023/09/23 02:44:29;;;;;;;;;8.00;7.00;;;;;23.51;100.00;97989.88;6253143;27;96571;-62
2023/09/23 02:47:33;;;;;;;;;7.00;7.00;;;;;23.47;100.00;97988.09;6228617;28;97439;-62
2023/09/23 02:50:37;;;;;;;;;7.80;6.80;;;;;23.43;100.00;98004.44;6230755;28;96386;-62
2023/09/23 02:53:40;;;;;;;;;8.50;7.50;;;;;23.31;100.00;97996.06;6249023;27;96500;-62
2023/09/23 02:56:47;;;;;;;;;11.50;8.50;;;;;23.33;100.00;98013.84;6218107;28;96742;-62
2023/09/23 02:59:56;;;;;;;;;11.00;10.80;;;;;23.26;100.00;98021.75;6254899;27;96415;-62
2023/09/23 03:03:02;;;;;;;;;15.00;14.00;;;;;23.21;100.00;98010.16;6242202;28;97702;-62
2023/09/23 03:06:07;;;;;;;;;13.00;12.20;;;;;23.16;100.00;98008.38;6242648;27;96200;-62
2023/09/23 03:09:12;;;;;;;;;17.00;15.00;;;;;23.18;100.00;98013.53;6243022;28;96163;-62
2023/09/23 03:12:19;;;;;;;;;17.00;14.50;;;;;23.11;100.00;98018.72;6242153;28;96194;-62
2023/09/23 03:15:33;;;;;;;;;13.00;11.80;;;;;23.03;100.00;98025.81;6235553;28;97011;-62
2023/09/23 03:18:42;;;;;;;;;14.00;13.00;;;;;22.83;100.00;98035.53;6233184;28;96566;-62
2023/09/23 03:21:46;;;;;;;;;15.00;13.00;;;;;22.82;100.00;98055.09;6223620;28;96375;-62
2023/09/23 03:24:50;;;;;;;;;14.60;13.00;;;;;22.67;100.00;98041.78;6274909;27;97901;-62
2023/09/23 03:27:55;;;;;;;;;15.40;13.00;;;;;22.63;100.00;98049.84;6258070;27;96864;-62
2023/09/23 03:31:02;;;;;;;;;16.00;12.00;;;;;22.40;100.00;98057.38;6229398;27;97786;-62
2023/09/23 03:34:07;;;;;;;;;14.00;12.80;;;;;22.36;100.00;98050.09;6253716;27;97005;-62
2023/09/23 03:37:10;;;;;;;;;18.00;17.00;;;;;22.19;100.00;98050.84;6241879;28;96522;-62
2023/09/23 03:40:15;;;;;;;;;15.00;15.00;;;;;22.10;100.00;98052.75;6209643;28;96872;-62
2023/09/23 03:43:20;;;;;;;;;15.20;14.00;;;;;22.09;100.00;98062.09;6223600;28;98519;-62
2023/09/23 03:46:24;;;;;;;;;16.00;15.00;;;;;21.92;100.00;98060.06;6259986;27;96386;-62
2023/09/23 03:49:28;;;;;;;;;19.00;17.60;;;;;21.69;100.00;98066.75;6243040;28;96760;-62
2023/09/23 03:52:32;;;;;;;;;19.00;16.60;;;;;21.59;100.00;98061.50;6240242;27;96512;-62
2023/09/23 03:55:36;;;;;;;;;21.00;17.00;;;;;21.58;100.00;98070.84;6260950;27;96426;-62
2023/09/23 03:58:43;;;;;;;;;19.40;16.40;;;;;21.40;100.00;98067.19;6243166;28;96454;-62
2023/09/23 04:01:47;;;;;;;;;20.00;18.60;;;;;21.48;100.00;98060.94;6251995;27;96333;-62
2023/09/23 04:04:53;;;;;;;;;15.50;15.00;;;;;21.49;100.00;98068.06;6217920;28;96717;-62
2023/09/23 04:07:57;;;;;;;;;14.00;13.20;;;;;21.50;100.00;98075.16;6240398;28;96780;-62
2023/09/23 04:11:03;;;;;;;;;17.00;13.00;;;;;21.47;100.00;98094.97;6236608;27;96491;-63
2023/09/23 04:14:08;;;;;;;;;15.00;13.00;;;;;21.45;100.00;98102.69;6240791;28;96647;-62
2023/09/23 04:17:12;;;;;;;;;20.00;18.60;;;;;21.39;100.00;98084.75;6225611;28;96519;-62
2023/09/23 04:20:15;;;;;;;;;18.00;16.60;;;;;21.39;100.00;98081.22;6242103;27;96509;-62
2023/09/23 04:23:18;;;;;;;;;17.00;15.00;;;;;21.26;100.00;98087.56;6235155;27;96536;-62
2023/09/23 04:26:24;;;;;;;;;18.80;16.00;;;;;21.29;100.00;98092.41;6217688;28;96475;-62
2023/09/23 04:29:30;;;;;;;;;18.80;16.00;;;;;21.28;100.00;98090.78;6233669;28;96224;-62
2023/09/23 04:32:34;;;;;;;;;21.60;18.20;;;;;21.29;100.00;98073.22;6241186;27;96314;-62
2023/09/23 04:35:37;;;;;;;;;19.40;16.00;;;;;21.36;100.00;98070.84;6228211;28;96334;-62
2023/09/23 04:38:40;;;;;;;;;17.00;15.40;;;;;21.34;100.00;98079.41;6225191;28;96887;-62
2023/09/23 04:41:44;;;;;;;;;18.00;15.20;;;;;21.24;100.00;98081.56;6241910;27;98073;-62
2023/09/23 04:44:48;;;;;;;;;18.80;16.00;;;;;21.29;100.00;98086.94;6228208;28;96349;-62
2023/09/23 04:47:51;;;;;;;;;20.60;15.00;;;;;21.28;100.00;98082.56;6267935;27;96368;-62
2023/09/23 04:50:55;;;;;;;;;19.60;17.00;;;;;21.37;100.00;98086.19;6261135;27;96307;-62
2023/09/23 04:53:59;;;;;;;;;22.50;16.75;;;;;21.42;100.00;98097.03;6241132;28;96878;-62
2023/09/23 04:57:03;;;;;;;;;15.50;14.00;;;;;21.38;100.00;98102.31;6243449;28;96329;-62
2023/09/23 05:00:10;;;;;;;;;16.40;14.00;;;;;21.31;100.00;98104.69;6242879;27;96536;-62
2023/09/23 05:03:13;;;;;;;;;16.67;14.00;;;;;21.32;100.00;98095.34;6234851;28;96940;-62
2023/09/23 05:06:16;;;;;;;;;17.40;15.00;;;;;21.19;100.00;98087.97;6216461;28;96902;-62
2023/09/23 05:09:20;;;;;;;;;14.60;13.80;;;;;21.27;100.00;98089.97;6239001;27;97898;-63
2023/09/23 05:12:23;;;;;;;;;14.00;13.00;;;;;21.32;100.00;98083.56;6245039;28;96412;-62
2023/09/23 05:15:29;;;;;;;;;18.60;15.60;;;;;21.32;100.00;98095.34;6260445;27;96877;-62
2023/09/23 05:18:32;;;;;;;;;17.80;15.40;;;;;21.31;100.00;98103.88;6241200;27;97270;-62
2023/09/23 05:21:36;;;;;;;;;15.50;15.50;;;;;21.30;100.00;98127.75;6259492;27;96306;-62
2023/09/23 05:24:41;;;;;;;;;17.00;15.20;;;;;21.29;100.00;98131.63;6241038;28;96340;-62
2023/09/23 05:27:44;;;;;;;;;16.00;15.00;;;;;21.24;100.00;98141.88;6229472;28;96306;-63
2023/09/23 05:30:49;;;;;;;;;16.75;15.00;;;;;21.19;100.00;98142.81;6226460;28;96369;-62
2023/09/23 05:33:52;;;;;;;;;15.00;14.00;;;;;21.25;100.00;98133.34;6241533;28;96725;-62
2023/09/23 05:36:56;;;;;;;;;12.75;10.75;;;;;21.18;100.00;98130.22;6242877;27;96308;-62
2023/09/23 05:39:59;;;;;;;;;14.75;14.00;;;;;21.20;100.00;98122.50;6259962;27;96777;-62
2023/09/23 05:43:03;;;;;;;;;12.75;11.00;;;;;21.11;100.00;98130.59;6245319;28;96585;-62
2023/09/23 05:46:09;;;;;;;;;16.00;13.50;;;;;21.16;100.00;98137.91;6241703;27;96385;-62
2023/09/23 05:49:13;;;;;;;;;17.00;14.80;;;;;21.19;100.00;98145.56;6235148;27;96527;-62
2023/09/23 05:52:16;;;;;;;;;14.00;12.00;;;;;21.28;100.00;98137.41;6226910;28;96376;-62
2023/09/23 05:55:19;;;;;;;;;13.00;11.75;;;;;21.31;100.00;98155.97;6240199;27;96857;-62
2023/09/23 05:58:23;;;;;;;;;18.40;15.40;;;;;21.31;100.00;98165.00;6243799;28;96318;-62
2023/09/23 06:01:28;;;;;;;;;17.00;15.00;;;;;21.24;100.00;98161.06;6226770;28;96892;-62
2023/09/23 06:04:32;;;;;;;;;18.40;16.00;;;;;21.19;100.00;98162.00;6241866;28;99038;-62
2023/09/23 06:07:35;;;;;;;;;16.00;15.00;;;;;21.13;100.00;98176.88;6238615;28;96965;-62
2023/09/23 06:10:38;;;;;;;;;21.00;18.40;;;;;21.10;100.00;98183.00;6239020;28;98537;-62
2023/09/23 06:13:42;;;;;;;;;18.00;16.00;;;;;21.17;100.00;98184.22;6240497;28;96662;-62
2023/09/23 06:16:47;;;;;;;;;17.20;16.00;;;;;21.17;100.00;98186.97;6241781;27;96098;-62
2023/09/23 06:19:51;;;;;;;;;16.00;13.00;;;;;21.11;100.00;98185.41;6242924;28;96474;-62
2023/09/23 06:22:54;;;;;;;;;12.80;12.00;;;;;21.04;100.00;98187.78;6242239;28;96422;-62
2023/09/23 06:26:01;;;;;;;;;15.00;14.00;;;;;20.97;100.00;98194.75;6239035;28;96662;-63
2023/09/23 06:29:05;;;;;;;;;16.00;14.00;;;;;21.01;100.00;98184.84;6239420;28;96348;-62
2023/09/23 06:32:10;;;;;;;;;14.00;12.50;;;;;20.96;100.00;98201.38;6239882;27;96914;-63
2023/09/23 06:35:14;;;;;;;;;14.80;13.00;;;;;20.98;100.00;98210.91;6238899;28;96871;-61
2023/09/23 06:38:17;;;;;;;;;15.60;12.00;;;;;20.98;100.00;98219.13;6263940;27;96287;-60
2023/09/23 06:41:21;;;;;;;;;13.60;10.80;;;;;20.99;100.00;98222.69;6245582;28;96249;-61
2023/09/23 06:44:24;;;;;;;;;14.20;13.20;;;;;20.91;100.00;98228.91;6257872;27;97429;-61
2023/09/23 06:47:29;;;;;;;;;15.75;11.50;;;;;20.95;100.00;98238.94;6255477;28;96469;-61
2023/09/23 06:50:32;;;;;;;;;14.80;12.80;;;;;21.06;100.00;98245.81;6261342;28;96266;-61
2023/09/23 06:53:35;;;;;;;;;13.00;10.20;;;;;21.05;100.00;98254.38;6259302;27;96711;-60
2023/09/23 06:56:39;;;;;;;;;16.00;14.00;;;;;21.03;100.00;98260.13;6260682;27;96666;-61
2023/09/23 06:59:42;;;;;;;;;15.25;13.00;;;;;20.95;100.00;98277.31;6258397;28;99110;-61
2023/09/23 07:02:46;;;;;;;;;14.00;12.00;;;;;;;;6262214;28;96355;-61
2023/09/23 07:05:49;;;;;;;;;14.20;10.60;;;;;21.05;100.00;98287.25;6259297;28;99572;-61
2023/09/23 07:08:54;;;;;;;;;14.40;12.40;;;;;21.14;100.00;98299.16;6257256;27;96482;-61
2023/09/23 07:11:59;;;;;;;;;16.40;13.00;;;;;21.18;100.00;98303.72;6246311;28;96367;-61
2023/09/23 07:15:04;;;;;;;;;12.80;11.20;;;;;21.19;100.00;98304.53;6258176;28;96304;-61
2023/09/23 07:18:10;;;;;;;;;16.33;13.67;;;;;21.16;100.00;98318.84;6262296;28;96363;-61
2023/09/23 07:21:15;;;;;;;;;15.00;15.00;;;;;21.11;100.00;98313.44;6263692;28;96340;-61
2023/09/23 07:24:19;;;;;;;;;16.75;14.75;;;;;21.07;100.00;98315.97;6260391;27;96569;-61
2023/09/23 07:27:24;;;;;;;;;17.60;14.40;;;;;21.01;100.00;98310.91;6260762;27;96733;-61
2023/09/23 07:30:27;;;;;;;;;15.20;13.00;;;;;21.07;100.00;98294.03;6257472;28;96932;-61
2023/09/23 07:33:32;;;;;;;;;15.75;12.75;;;;;21.05;100.00;98304.50;6261905;28;96439;-61
2023/09/23 07:36:35;;;;;;;;;16.60;14.20;;;;;21.13;100.00;98309.31;6254869;28;96314;-60
2023/09/23 07:39:39;;;;;;;;;18.00;14.75;;;;;21.06;100.00;98303.38;6262740;28;96415;-61
2023/09/23 07:42:43;;;;;;;;;19.00;19.00;;;;;21.29;100.00;98300.78;6290936;27;96495;-61
2023/09/23 07:45:46;;;;;;;;;18.20;16.00;;;;;21.39;100.00;98295.91;6255951;27;96336;-61
2023/09/23 07:48:51;;;;;;;;;15.80;14.00;;;;;21.42;100.00;98294.47;6255077;28;97182;-61
2023/09/23 07:51:56;;;;;;;;;18.20;13.20;;;;;21.51;100.00;98287.13;6259150;27;97029;-61
2023/09/23 07:54:59;;;;;;;;;19.00;15.50;;;;;21.63;100.00;98303.06;6256381;27;96395;-60
2023/09/23 07:58:03;;;;;;;;;17.20;16.20;;;;;21.70;100.00;98303.47;6258680;27;96451;-61
2023/09/23 08:01:06;;;;;;;;;16.20;14.00;;;;;21.80;100.00;98303.22;6259151;27;96905;-60
2023/09/23 08:04:10;;;;;;;;;17.25;15.25;;;;;21.81;100.00;98302.94;6240009;28;98454;-61
2023/09/23 08:07:13;;;;;;;;;15.50;13.00;;;;;21.83;100.00;98311.66;6259305;27;98429;-60
2023/09/23 08:10:17;;;;;;;;;18.00;12.25;;;;;21.84;100.00;98315.22;6259521;27;96830;-61
2023/09/23 08:13:21;;;;;;;;;16.00;15.00;;;;;21.88;100.00;98314.31;6260517;27;97016;-61
2023/09/23 08:16:26;;;;;;;;;15.00;13.00;;;;;21.93;100.00;98302.41;6260087;28;96609;-61
2023/09/23 08:19:30;;;;;;;;;14.75;14.00;;;;;21.92;100.00;98320.78;6261508;28;96283;-61
2023/09/23 08:22:36;;;;;;;;;17.20;15.80;;;;;21.93;100.00;98327.94;6289589;27;96515;-61
2023/09/23 08:25:41;;;;;;;;;21.00;17.40;;;;;21.96;100.00;98327.31;6252659;27;96868;-61
2023/09/23 08:28:45;;;;;;;;;15.80;14.20;;;;;22.04;100.00;98326.56;6254106;27;96495;-61
2023/09/23 08:31:48;;;;;;;;;16.00;16.00;;;;;22.06;100.00;98331.75;6261190;27;96640;-61
2023/09/23 08:34:52;;;;;;;;;13.00;12.40;;;;;22.07;100.00;98338.06;6243557;28;97026;-61
2023/09/23 08:37:56;;;;;;;;;14.40;13.00;;;;;22.10;100.00;98337.44;6262792;28;96381;-61
2023/09/23 08:41:05;;;;;;;;;15.00;13.00;;;;;22.15;100.00;98340.06;6261314;28;96709;-61
2023/09/23 08:44:09;;;;;;;;;14.40;14.00;;;;;22.12;100.00;98341.50;6262966;28;96215;-61
2023/09/23 08:47:12;;;;;;;;;14.50;13.00;;;;;22.12;100.00;98349.75;6246187;28;96357;-61
2023/09/23 08:50:18;;;;;;;;;10.00;10.00;;;;;22.13;100.00;98356.03;6244791;28;96715;-60
2023/09/23 08:53:23;;;;;;;;;9.00;8.40;;;;;22.13;100.00;98350.56;6261527;27;96327;-60
2023/09/23 08:56:26;;;;;;;;;11.00;10.25;;;;;22.11;100.00;98361.84;6262800;27;96702;-61
2023/09/23 08:59:30;;;;;;;;;7.75;7.00;;;;;21.95;100.00;98383.31;6244478;28;96413;-61
2023/09/23 09:02:34;;;;;;;;;8.00;7.00;;;;;21.83;100.00;98377.53;6254639;28;96750;-61
2023/09/23 09:05:40;;;;;;;;;6.00;5.40;;;;;21.80;100.00;98383.63;6241783;28;97301;-62
2023/09/23 09:08:43;;;;;;;;;7.20;6.80;;;;;21.75;100.00;98391.94;6255274;27;97054;-61
2023/09/23 09:11:48;;;;;;;;;6.00;6.00;;;;;21.53;100.00;98395.44;6256100;27;97272;-61
2023/09/23 09:14:51;;;;;;;;;5.33;4.00;;;;;21.55;100.00;98390.44;6253864;28;96481;-61
2023/09/23 09:17:55;;;;;;;;;6.00;5.00;;;;;21.51;100.00;98383.13;6257348;28;96335;-61
2023/09/23 09:20:59;;;;;;;;;6.00;6.00;;;;;21.66;100.00;98363.63;6239098;27;96975;-61
2023/09/23 09:24:04;;;;;;;;;3.00;3.00;;;;;21.80;100.00;98375.38;6252447;28;97496;-61
2023/09/23 09:27:12;;;;;;;;;5.00;5.00;;;;;21.85;100.00;98380.75;6245640;27;96255;-62
2023/09/23 09:30:16;;;;;;;;;5.00;4.75;;;;;21.81;100.00;98378.94;6255239;28;96386;-61
2023/09/23 09:33:21;;;;;;;;;4.00;4.00;;;;;21.77;100.00;98389.72;6272553;27;96404;-61
2023/09/23 09:36:26;;;;;;;;;4.00;4.00;;;;;21.73;100.00;98391.47;6257390;27;96514;-61
2023/09/23 09:39:37;;;;;;;;;3.00;3.00;;;;;21.61;100.00;98391.97;6257432;27;96124;-62
2023/09/23 09:42:42;;;;;;;;;5.00;5.00;;;;;21.61;100.00;98389.22;6246776;27;96678;-61
2023/09/23 09:45:48;;;;;;;;;5.00;4.00;;;;;21.64;100.00;98390.56;6247665;27;96728;-61
2023/09/23 09:48:52;;;;;;;;;2.00;2.00;;;;;21.52;100.00;98398.47;6256129;28;96712;-61
2023/09/23 09:51:57;;;;;;;;;3.00;2.75;;;;;21.47;100.00;98412.28;6256687;28;96332;-61
2023/09/23 09:55:03;;;;;;;;;4.00;3.20;;;;;21.38;100.00;98419.59;6255424;28;98437;-61
2023/09/23 09:58:06;;;;;;;;;5.00;4.00;;;;;21.39;100.00;98400.09;6245315;28;96728;-61
2023/09/23 10:01:12;;;;;;;;;5.00;5.00;;;;;21.61;100.00;98396.63;6268831;27;97273;-61
2023/09/23 10:04:19;;;;;;;;;6.00;5.75;;;;;21.72;100.00;98417.25;6255339;27;96340;-61
2023/09/23 10:07:24;;;;;;;;;4.00;4.00;;;;;21.81;100.00;98417.34;6254364;28;96758;-60
2023/09/23 10:10:33;;;;;;;;;6.00;4.00;;;;;21.92;100.00;98421.53;6260073;27;96312;-62
2023/09/23 10:13:36;;;;;;;;;4.00;4.00;;;;;21.95;100.00;98416.25;6276792;27;99028;-61
2023/09/23 10:16:39;;;;;;;;;6.50;6.00;;;;;21.97;100.00;98396.75;6260862;28;96343;-61
2023/09/23 10:19:43;;;;;;;;;5.00;4.00;;;;;22.13;100.00;98420.00;6259044;28;99386;-60
2023/09/23 10:22:53;;;;;;;;;4.60;4.20;;;;;22.26;100.00;98413.66;6270360;27;96398;-61
2023/09/23 10:25:56;;;;;;;;;4.20;3.60;;;;;22.39;100.00;98407.31;6249339;28;96463;-61
2023/09/23 10:29:03;;;;;;;;;8.20;7.20;;;;;22.54;100.00;98403.38;6250379;28;96449;-61
2023/09/23 10:32:11;;;;;;;;;6.00;6.00;;;;;22.64;100.00;98396.84;6244063;28;96426;-61
2023/09/23 10:35:15;;;;;;;;;8.40;7.60;;;;;22.73;100.00;98408.72;6261495;28;96664;-61
2023/09/23 10:38:22;;;;;;;;;6.00;5.00;;;;;22.81;100.00;98397.00;6252766;28;96459;-61
2023/09/23 10:41:32;;;;;;;;;3.00;3.00;;;;;22.85;100.00;98395.25;6259723;28;98434;-61
2023/09/23 10:44:35;;;;;;;;;5.00;4.00;;;;;22.79;100.00;98402.81;6261445;28;96559;-61
2023/09/23 10:47:38;;;;;;;;;5.00;4.00;;;;;22.82;100.00;98399.41;6262237;28;96330;-61
2023/09/23 10:50:43;;;;;;;;;3.00;3.00;;;;;22.82;100.00;98390.38;6259235;28;96714;-62
2023/09/23 10:53:49;;;;;;;;;6.40;4.40;;;;;22.90;100.00;98389.63;6259094;27;97188;-60
2023/09/23 10:56:53;;;;;;;;;2.00;2.00;;;;;22.90;100.00;98386.88;6257826;28;96541;-61
2023/09/23 10:59:57;;;;;;;;;4.60;4.60;;;;;22.95;100.00;98396.91;6258174;28;96854;-61
2023/09/23 11:03:06;;;;;;;;;6.20;6.20;;;;;23.01;100.00;98412.97;6260966;28;96311;-61
2023/09/23 11:06:10;;;;;;;;;4.40;4.40;;;;;23.04;100.00;98397.78;6261683;28;96824;-61
2023/09/23 11:09:15;;;;;;;;;4.00;4.00;;;;;23.07;100.00;98399.88;6261066;28;96489;-60
2023/09/23 11:12:18;;;;;;;;;5.00;5.00;;;;;23.10;100.00;98383.59;6259306;28;96907;-61
2023/09/23 11:15:22;;;;;;;;;4.00;3.00;;;;;23.08;100.00;98385.84;6260801;28;96367;-60
2023/09/23 11:18:28;;;;;;;;;4.00;4.00;;;;;23.11;100.00;98376.16;6260879;28;96412;-61
2023/09/23 11:21:31;;;;;;;;;4.00;4.00;;;;;23.22;100.00;98383.00;6252218;28;96435;-61
2023/09/23 11:24:40;;;;;;;;;3.00;3.00;;;;;23.27;100.00;98389.16;6240294;28;96611;-61
2023/09/23 11:27:47;;;;;;;;;2.40;2.40;;;;;23.31;100.00;98361.88;6250585;28;96305;-61
2023/09/23 11:30:52;;;;;;;;;3.00;3.00;;;;;23.39;100.00;98357.50;6251708;27;96394;-61
2023/09/23 11:33:55;;;;;;;;;3.00;2.00;;;;;23.46;100.00;98339.44;6260004;28;96629;-61
2023/09/23 11:36:59;;;;;;;;;3.00;3.00;;;;;23.58;100.00;98342.41;6260790;28;96734;-60
2023/09/23 11:40:08;;;;;;;;;3.20;3.20;;;;;23.72;100.00;98342.25;6256607;28;98959;-61
2023/09/23 11:43:11;;;;;;;;;4.00;4.00;;;;;23.84;100.00;98361.72;6256870;28;96427;-60
2023/09/23 11:46:15;;;;;;;;;4.00;4.00;;;;;23.82;100.00;98368.66;6258856;28;96167;-60
2023/09/23 11:49:19;;;;;;;;;4.00;4.00;;;;;23.70;100.00;98372.84;6285997;27;96765;-61
2023/09/23 11:52:23;;;;;;;;;3.60;3.60;;;;;23.60;100.00;98378.63;6259679;28;96375;-61
2023/09/23 11:55:27;;;;;;;;;2.00;2.00;;;;;23.44;100.00;98377.44;6260574;28;96412;-60
2023/09/23 11:58:30;;;;;;;;;3.00;3.00;;;;;23.31;100.00;98384.66;6247144;28;96487;-61
2023/09/23 12:01:33;;;;;;;;;3.00;3.00;;;;;23.20;100.00;98380.56;6259159;28;96723;-60
2023/09/23 12:04:36;;;;;;;;;0.00;0.00;;;;;23.11;100.00;98381.66;6262749;28;96626;-61
2023/09/23 12:07:41;;;;;;;;;2.00;2.00;;;;;23.10;100.00;98383.59;6261144;28;96816;-62
2023/09/23 12:10:45;;;;;;;;;1.60;1.60;;;;;23.00;100.00;98381.13;6262213;27;97141;-61
2023/09/23 12:13:48;;;;;;;;;3.40;3.40;;;;;22.91;100.00;98391.25;6255628;27;99016;-61
2023/09/23 12:16:51;;;;;;;;;3.00;3.00;;;;;22.87;100.00;98393.00;6260427;28;96396;-62
2023/09/23 12:19:54;;;;;;;;;4.00;4.00;;;;;22.80;100.00;98404.44;6260232;28;96295;-61
2023/09/23 12:22:59;;;;;;;;;3.40;3.00;;;;;22.61;100.00;98381.81;6260343;27;96894;-61
2023/09/23 12:26:04;;;;;;;;;2.00;2.00;;;;;22.65;100.00;98390.22;6275788;27;96310;-61
2023/09/23 12:29:08;;;;;;;;;2.00;2.00;;;;;22.55;100.00;98380.28;6242980;28;99011;-62
2023/09/23 12:32:12;;;;;;;;;5.00;5.00;;;;;22.50;100.00;98393.34;6258501;27;96410;-61
2023/09/23 12:35:15;;;;;;;;;3.00;3.00;;;;;22.47;100.00;98403.03;6261747;27;97159;-61
2023/09/23 12:38:19;;;;;;;;;3.00;3.00;;;;;22.36;100.00;98401.63;6257071;28;97355;-60
2023/09/23 12:41:23;;;;;;;;;2.50;2.50;;;;;22.33;100.00;98407.75;6254384;28;96378;-61
2023/09/23 12:44:27;;;;;;;;;2.33;2.00;;;;;22.21;100.00;98408.28;6252284;28;96483;-61
2023/09/23 12:47:30;;;;;;;;;4.00;3.00;;;;;22.14;100.00;98423.56;6256112;28;96352;-61
2023/09/23 12:50:53;;;;;;;;;3.50;3.00;;;;;22.09;100.00;98451.91;6253512;28;96373;-61
2023/09/23 12:53:57;;;;;;;;;2.00;2.00;;;;;22.00;100.00;98464.75;6253980;28;96936;-62
2023/09/23 12:57:01;;;;;;;;;3.00;3.00;;;;;21.98;100.00;98467.00;6249988;28;96355;-62
2023/09/23 13:00:06;;;;;;;;;4.00;3.00;;;;;21.97;100.00;98460.69;6254288;28;96535;-62
2023/09/23 13:03:10;;;;;;;;;4.50;4.00;;;;;21.99;100.00;98465.88;6256287;28;96274;-61
2023/09/23 13:06:14;;;;;;;;;3.00;3.00;;;;;21.97;100.00;98466.19;6254740;27;96469;-61
2023/09/23 13:09:18;;;;;;;;;3.20;2.80;;;;;21.90;100.00;98459.44;6252633;28;96460;-61
2023/09/23 13:12:22;;;;;;;;;2.60;2.60;;;;;21.87;100.00;98460.88;6264771;27;97298;-60
2023/09/23 13:15:26;;;;;;;;;2.60;2.60;;;;;21.82;100.00;98469.19;6246336;28;96694;-60
2023/09/23 13:18:31;;;;;;;;;2.20;2.00;;;;;21.80;100.00;98484.31;6252069;28;96481;-61
2023/09/23 13:21:34;;;;;;;;;4.00;3.00;;;;;21.70;100.00;98484.56;6248255;28;96372;-60
2023/09/23 13:24:37;;;;;;;;;5.00;5.00;;;;;21.68;100.00;98497.75;6250695;27;96937;-61
2023/09/23 13:27:42;;;;;;;;;4.00;4.00;;;;;21.57;100.00;98510.84;6253221;28;96608;-61
2023/09/23 13:30:46;;;;;;;;;5.40;5.00;;;;;21.48;100.00;98497.00;6249642;27;96762;-62
2023/09/23 13:33:49;;;;;;;;;5.00;4.00;;;;;21.53;100.00;98491.44;6242433;27;97453;-60
2023/09/23 13:36:52;;;;;;;;;4.00;4.00;;;;;21.56;100.00;98492.75;6246273;27;96655;-60
2023/09/23 13:39:57;;;;;;;;;5.00;4.40;;;;;21.59;100.00;98498.47;6244217;28;96264;-61
2023/09/23 13:43:02;;;;;;;;;4.20;4.00;;;;;21.64;100.00;98494.00;6251434;28;96385;-61
2023/09/23 13:46:05;;;;;;;;;4.75;4.75;;;;;21.72;100.00;98494.09;6250981;28;96563;-60
2023/09/23 13:49:09;;;;;;;;;2.75;2.75;;;;;21.72;100.00;98507.81;6248517;27;96491;-61
2023/09/23 13:52:12;;;;;;;;;3.00;2.40;;;;;21.71;100.00;98516.34;6244363;28;96306;-60
2023/09/23 13:55:15;;;;;;;;;3.00;2.50;;;;;21.70;100.00;98521.00;6254646;28;96345;-60
2023/09/23 13:58:20;;;;;;;;;4.00;4.00;;;;;21.67;100.00;98518.88;6251195;28;96673;-61
2023/09/23 14:01:23;;;;;;;;;4.00;3.00;;;;;21.68;100.00;98517.78;6269420;27;96629;-61
2023/09/23 14:04:26;;;;;;;;;3.60;3.00;;;;;21.67;100.00;98523.56;6253251;28;97045;-61
2023/09/23 14:07:29;;;;;;;;;3.00;3.00;;;;;21.73;100.00;98528.66;6263937;27;96216;-61
2023/09/23 14:10:33;;;;;;;;;3.60;3.60;;;;;21.80;100.00;98522.75;6252426;28;96861;-61